Private Wetterstation Wechselburg
Wetterdaten: Sonntag, 04.10.2015
Datum Zeit Temp. +2m Bodentemp. Temp.+5cm Temp. Wind Windchill X Diff Temp. Feuchte +2m Feuchte +5cm Sonnenschein Luftdruck Regen Wind Richtung Richtung Sonnenschein Taupunkt Windchill Windben
04.10.2015 00:01 12,6 C 23,1 C 13,1 C 13,4 C 13,4 C 0,8 C 79 % 85 % 0 % 1013,3 hPa 0,0 l/m 0,0 km/h (0 Bft) W-SW 247 0 min 9,1 C 13,4 C 0,0 km/h (0 Bft)
04.10.2015 00:06 12,5 C 23,1 C 12,9 C 13,1 C 13,1 C 0,6 C 79 % 85 % 0 % 1013,3 hPa 0,0 l/m 0,0 km/h (0 Bft) W-SW 247 0 min 9,0 C 13,1 C 0,0 km/h (0 Bft)
04.10.2015 00:11 12,4 C 23,1 C 12,8 C 12,9 C 12,9 C 0,5 C 79 % 85 % 0 % 1013,5 hPa 0,0 l/m 0,0 km/h (0 Bft) NO 45 0 min 8,9 C 12,9 C 0,0 km/h (0 Bft)
04.10.2015 00:16 12,3 C 23,1 C 12,7 C 12,9 C 12,9 C 0,6 C 79 % 86 % 0 % 1013,5 hPa 0,0 l/m 0,0 km/h (0 Bft) NW 315 0 min 8,8 C 12,9 C 0,0 km/h (0 Bft)
04.10.2015 00:21 12,3 C 23,2 C 12,6 C 12,8 C 12,8 C 0,5 C 80 % 86 % 0 % 1013,5 hPa 0,0 l/m 0,0 km/h (0 Bft) NW 315 0 min 8,9 C 12,8 C 0,0 km/h (0 Bft)
04.10.2015 00:26 12,1 C 23,2 C 12,7 C 12,8 C 12,8 C 0,7 C 80 % 86 % 0 % 1013,5 hPa 0,0 l/m 0,0 km/h (0 Bft) NO 45 0 min 8,8 C 12,8 C 0,0 km/h (0 Bft)
04.10.2015 00:31 12,0 C 23,2 C 12,6 C 12,7 C 12,7 C 0,7 C 80 % 86 % 0 % 1013,3 hPa 0,0 l/m 0,0 km/h (0 Bft) SW 225 0 min 8,7 C 12,7 C 0,0 km/h (0 Bft)
04.10.2015 00:36 12,0 C 23,2 C 12,5 C 12,7 C 12,7 C 0,7 C 80 % 86 % 0 % 1013,3 hPa 0,0 l/m 0,0 km/h (0 Bft) W-SW 247 0 min 8,7 C 12,7 C 0,0 km/h (0 Bft)
04.10.2015 00:41 11,9 C 23,1 C 12,4 C 12,7 C 12,7 C 0,8 C 81 % 86 % 0 % 1013,3 hPa 0,0 l/m 0,0 km/h (0 Bft) W-SW 247 0 min 8,7 C 12,7 C 0,0 km/h (0 Bft)
04.10.2015 00:46 11,8 C 23,1 C 12,5 C 12,7 C 12,7 C 0,9 C 80 % 86 % 0 % 1013,3 hPa 0,0 l/m 0,0 km/h (0 Bft) NW 315 0 min 8,5 C 12,7 C 1,9 km/h (1 Bft)
04.10.2015 00:51 11,8 C 23,2 C 12,5 C 12,7 C 12,7 C 0,9 C 80 % 86 % 0 % 1013,3 hPa 0,0 l/m 0,0 km/h (0 Bft) W-SW 247 0 min 8,5 C 12,7 C 0,0 km/h (0 Bft)
04.10.2015 00:56 11,9 C 23,2 C 12,4 C 12,6 C 12,6 C 0,7 C 81 % 86 % 0 % 1013,3 hPa 0,0 l/m 0,2 km/h (0 Bft) N-NW 337 0 min 8,7 C 12,6 C 0,0 km/h (0 Bft)
04.10.2015 01:01 11,7 C 23,1 C 12,3 C 12,5 C 12,5 C 0,8 C 80 % 86 % 0 % 1013,3 hPa 0,0 l/m 0,2 km/h (0 Bft) N 360 0 min 8,4 C 12,5 C 0,0 km/h (0 Bft)
04.10.2015 01:06 11,7 C 23,2 C 12,2 C 12,3 C 12,3 C 0,6 C 80 % 86 % 0 % 1013,3 hPa 0,0 l/m 0,0 km/h (0 Bft) N 360 0 min 8,4 C 12,3 C 0,0 km/h (0 Bft)
04.10.2015 01:11 11,7 C 23,2 C 11,9 C 12,1 C 12,1 C 0,4 C 80 % 86 % 0 % 1013,4 hPa 0,0 l/m 0,0 km/h (0 Bft) O-NO 67 0 min 8,4 C 12,1 C 0,0 km/h (0 Bft)
04.10.2015 01:16 11,6 C 23,2 C 11,9 C 12,0 C 12,0 C 0,4 C 80 % 86 % 0 % 1013,4 hPa 0,0 l/m 0,0 km/h (0 Bft) O-NO 67 0 min 8,3 C 12,0 C 0,0 km/h (0 Bft)
04.10.2015 01:21 11,5 C 23,3 C 11,6 C 11,9 C 11,9 C 0,4 C 80 % 86 % 0 % 1013,4 hPa 0,0 l/m 0,0 km/h (0 Bft) O-NO 67 0 min 8,2 C 11,9 C 0,0 km/h (0 Bft)
04.10.2015 01:26 11,5 C 23,2 C 11,7 C 11,9 C 11,9 C 0,4 C 80 % 87 % 0 % 1013,4 hPa 0,0 l/m 0,0 km/h (0 Bft) O-NO 67 0 min 8,2 C 11,9 C 0,0 km/h (0 Bft)
04.10.2015 01:31 11,3 C 23,2 C 11,5 C 11,8 C 11,8 C 0,5 C 80 % 87 % 0 % 1013,8 hPa 0,0 l/m 0,0 km/h (0 Bft) O-NO 67 0 min 8,0 C 11,8 C 0,0 km/h (0 Bft)
04.10.2015 01:32 11,3 C 23,2 C 11,5 C 11,8 C 11,8 C 0,5 C 80 % 87 % 0 % 1013,8 hPa 0,0 l/m 0,0 km/h (0 Bft) O-NO 67 0 min 8,0 C 11,8 C 0,0 km/h (0 Bft)
04.10.2015 01:35 11,3 C 23,2 C 11,5 C 11,8 C 11,8 C 0,5 C 80 % 87 % 0 % 1013,8 hPa 0,0 l/m 0,0 km/h (0 Bft) O-NO 67 0 min 8,0 C 11,8 C 0,0 km/h (0 Bft)
04.10.2015 01:40 11,3 C 23,2 C 11,3 C 11,7 C 11,7 C 0,4 C 80 % 86 % 0 % 1013,8 hPa 0,0 l/m 0,0 km/h (0 Bft) O 90 0 min 8,0 C 11,7 C 0,0 km/h (0 Bft)
04.10.2015 01:45 11,1 C 23,3 C 11,2 C 11,5 C 11,5 C 0,4 C 80 % 86 % 0 % 1013,8 hPa 0,0 l/m 0,0 km/h (0 Bft) O-NO 67 0 min 7,8 C 11,5 C 0,0 km/h (0 Bft)
04.10.2015 01:50 11,1 C 23,3 C 11,3 C 11,4 C 11,4 C 0,3 C 80 % 87 % 0 % 1013,8 hPa 0,0 l/m 0,0 km/h (0 Bft) O-NO 67 0 min 7,8 C 11,4 C 0,0 km/h (0 Bft)
04.10.2015 01:55 10,9 C 23,3 C 11,1 C 11,2 C 11,2 C 0,3 C 81 % 87 % 0 % 1013,9 hPa 0,0 l/m 0,0 km/h (0 Bft) O-NO 67 0 min 7,8 C 11,2 C 0,0 km/h (0 Bft)
04.10.2015 02:00 10,8 C 23,3 C 11,1 C 11,2 C 11,2 C 0,4 C 81 % 87 % 0 % 1013,9 hPa 0,0 l/m 0,0 km/h (0 Bft) O-NO 67 0 min 7,7 C 11,2 C 0,0 km/h (0 Bft)
04.10.2015 02:05 10,7 C 23,3 C 11,1 C 11,1 C 11,1 C 0,4 C 81 % 87 % 0 % 1013,9 hPa 0,0 l/m 0,0 km/h (0 Bft) O-NO 67 0 min 7,6 C 11,1 C 0,0 km/h (0 Bft)
04.10.2015 02:10 10,7 C 23,3 C 10,9 C 11,0 C 11,0 C 0,3 C 81 % 87 % 0 % 1013,9 hPa 0,0 l/m 0,0 km/h (0 Bft) O-NO 67 0 min 7,6 C 11,0 C 0,0 km/h (0 Bft)
04.10.2015 02:15 10,5 C 23,3 C 10,9 C 11,0 C 11,0 C 0,5 C 82 % 87 % 0 % 1013,8 hPa 0,0 l/m 0,0 km/h (0 Bft) O-NO 67 0 min 7,6 C 11,0 C 0,0 km/h (0 Bft)
04.10.2015 02:20 10,4 C 23,3 C 10,7 C 10,9 C 10,9 C 0,5 C 81 % 87 % 0 % 1013,8 hPa 0,0 l/m 0,0 km/h (0 Bft) O-NO 67 0 min 7,3 C 10,9 C 0,0 km/h (0 Bft)
04.10.2015 02:25 10,3 C 23,3 C 10,7 C 10,7 C 10,7 C 0,4 C 81 % 88 % 0 % 1013,8 hPa 0,0 l/m 0,0 km/h (0 Bft) O-NO 67 0 min 7,2 C 10,7 C 0,0 km/h (0 Bft)
04.10.2015 02:30 10,3 C 23,3 C 10,6 C 10,6 C 10,6 C 0,3 C 81 % 88 % 0 % 1013,8 hPa 0,0 l/m 0,0 km/h (0 Bft) O-NO 67 0 min 7,2 C 10,6 C 0,0 km/h (0 Bft)
04.10.2015 02:35 10,0 C 23,3 C 10,4 C 10,3 C 10,3 C 0,3 C 81 % 88 % 0 % 1013,8 hPa 0,0 l/m 0,0 km/h (0 Bft) O-NO 67 0 min 6,9 C 10,3 C 0,0 km/h (0 Bft)
04.10.2015 02:40 9,9 C 23,3 C 10,4 C 10,1 C 10,1 C 0,2 C 82 % 88 % 0 % 1013,8 hPa 0,0 l/m 0,0 km/h (0 Bft) N 360 0 min 7,0 C 10,1 C 0,0 km/h (0 Bft)
04.10.2015 02:45 9,7 C 23,3 C 10,4 C 10,1 C 10,1 C 0,4 C 82 % 88 % 0 % 1013,8 hPa 0,0 l/m 0,0 km/h (0 Bft) N 360 0 min 6,8 C 10,1 C 0,0 km/h (0 Bft)
04.10.2015 02:50 9,6 C 23,3 C 10,3 C 9,9 C 9,9 C 0,3 C 82 % 88 % 0 % 1013,8 hPa 0,0 l/m 0,0 km/h (0 Bft) O-NO 67 0 min 6,7 C 9,9 C 0,0 km/h (0 Bft)
04.10.2015 02:55 9,5 C 23,3 C 10,2 C 9,7 C 9,7 C 0,2 C 82 % 88 % 0 % 1013,9 hPa 0,0 l/m 0,0 km/h (0 Bft) SO 135 0 min 6,6 C 9,7 C 0,0 km/h (0 Bft)
04.10.2015 03:00 9,4 C 23,4 C 10,0 C 9,5 C 9,5 C 0,1 C 82 % 88 % 0 % 1013,9 hPa 0,0 l/m 0,0 km/h (0 Bft) SO 135 0 min 6,5 C 9,5 C 0,0 km/h (0 Bft)
04.10.2015 03:05 9,2 C 23,4 C 10,0 C 9,3 C 9,3 C 0,1 C 82 % 88 % 0 % 1013,9 hPa 0,0 l/m 0,0 km/h (0 Bft) N-NW 337 0 min 6,3 C 9,3 C 0,0 km/h (0 Bft)
04.10.2015 03:10 9,1 C 23,5 C 9,9 C 9,2 C 9,2 C 0,1 C 82 % 88 % 0 % 1013,9 hPa 0,0 l/m 0,0 km/h (0 Bft) N 360 0 min 6,2 C 9,2 C 0,0 km/h (0 Bft)
04.10.2015 03:15 9,1 C 23,5 C 9,6 C 9,1 C 9,1 C 0,0 C 83 % 88 % 0 % 1013,8 hPa 0,0 l/m 0,0 km/h (0 Bft) O-NO 67 0 min 6,4 C 9,1 C 0,0 km/h (0 Bft)
04.10.2015 03:20 8,9 C 23,5 C 9,6 C 9,0 C 9,0 C 0,1 C 83 % 88 % 0 % 1013,8 hPa 0,0 l/m 0,0 km/h (0 Bft) O-NO 67 0 min 6,2 C 9,0 C 0,0 km/h (0 Bft)
04.10.2015 03:25 8,8 C 23,5 C 9,5 C 8,9 C 8,9 C 0,1 C 83 % 89 % 0 % 1013,8 hPa 0,0 l/m 0,0 km/h (0 Bft) O-NO 67 0 min 6,1 C 8,9 C 0,0 km/h (0 Bft)
04.10.2015 03:30 8,8 C 23,5 C 9,4 C 8,9 C 8,9 C 0,1 C 84 % 89 % 0 % 1013,8 hPa 0,0 l/m 0,0 km/h (0 Bft) O-NO 67 0 min 6,2 C 8,9 C 0,0 km/h (0 Bft)
04.10.2015 03:35 8,7 C 23,5 C 9,3 C 8,9 C 8,9 C 0,2 C 84 % 89 % 0 % 1013,7 hPa 0,0 l/m 0,0 km/h (0 Bft) O-NO 67 0 min 6,2 C 8,9 C 0,0 km/h (0 Bft)
04.10.2015 03:41 8,5 C 23,5 C 9,2 C 8,5 C 8,4 C 0,0 C 84 % 89 % 0 % 1013,7 hPa 0,0 l/m 0,0 km/h (0 Bft) N 0 0 min 6,0 C 8,4 C 0,0 km/h (0 Bft)
04.10.2015 03:50 8,3 C 23,5 C 9,0 C 8,4 C 8,4 C 0,1 C 84 % 89 % 0 % 1013,7 hPa 0,0 l/m 0,0 km/h (0 Bft) O-NO 67 0 min 5,8 C 8,4 C 0,0 km/h (0 Bft)
04.10.2015 03:55 8,3 C 23,5 C 9,1 C 8,5 C 8,5 C 0,2 C 84 % 89 % 0 % 1013,9 hPa 0,0 l/m 0,0 km/h (0 Bft) S 180 0 min 5,8 C 8,5 C 0,0 km/h (0 Bft)
04.10.2015 04:00 8,2 C 23,5 C 9,1 C 8,4 C 8,4 C 0,2 C 84 % 89 % 0 % 1013,9 hPa 0,0 l/m 0,0 km/h (0 Bft) N-NW 337 0 min 5,7 C 8,4 C 0,0 km/h (0 Bft)
04.10.2015 04:05 8,1 C 23,4 C 9,1 C 8,3 C 8,3 C 0,2 C 84 % 89 % 0 % 1013,9 hPa 0,0 l/m 0,0 km/h (0 Bft) O-SO 112 0 min 5,6 C 8,3 C 0,0 km/h (0 Bft)
04.10.2015 04:10 8,0 C 23,5 C 9,0 C 8,2 C 8,2 C 0,2 C 84 % 90 % 0 % 1013,9 hPa 0,0 l/m 0,0 km/h (0 Bft) N-NW 337 0 min 5,5 C 8,2 C 0,0 km/h (0 Bft)
04.10.2015 04:15 8,0 C 23,5 C 8,9 C 8,1 C 8,1 C 0,1 C 85 % 90 % 0 % 1013,9 hPa 0,0 l/m 0,0 km/h (0 Bft) W-SW 247 0 min 5,6 C 8,1 C 0,0 km/h (0 Bft)
04.10.2015 04:20 7,9 C 23,5 C 8,9 C 8,0 C 8,0 C 0,1 C 85 % 90 % 0 % 1013,9 hPa 0,0 l/m 0,0 km/h (0 Bft) O-NO 67 0 min 5,5 C 8,0 C 0,0 km/h (0 Bft)
04.10.2015 04:25 7,8 C 23,5 C 8,9 C 7,9 C 7,9 C 0,1 C 85 % 90 % 0 % 1013,9 hPa 0,0 l/m 0,0 km/h (0 Bft) S-SW 202 0 min 5,4 C 7,9 C 0,0 km/h (0 Bft)
04.10.2015 04:30 7,7 C 23,5 C 8,7 C 7,8 C 7,8 C 0,1 C 85 % 89 % 0 % 1013,9 hPa 0,0 l/m 0,0 km/h (0 Bft) O-NO 67 0 min 5,3 C 7,8 C 0,0 km/h (0 Bft)
04.10.2015 04:35 7,6 C 23,4 C 8,7 C 7,9 C 7,9 C 0,3 C 85 % 89 % 0 % 1013,9 hPa 0,0 l/m 0,0 km/h (0 Bft) NW 315 0 min 5,2 C 7,9 C 0,0 km/h (0 Bft)
04.10.2015 04:40 7,6 C 23,5 C 8,7 C 7,7 C 7,7 C 0,1 C 85 % 89 % 0 % 1013,9 hPa 0,0 l/m 0,0 km/h (0 Bft) NW 315 0 min 5,2 C 7,7 C 0,0 km/h (0 Bft)
04.10.2015 04:45 7,5 C 23,4 C 8,5 C 7,6 C 7,6 C 0,1 C 85 % 89 % 0 % 1013,9 hPa 0,0 l/m 0,0 km/h (0 Bft) NW 315 0 min 5,1 C 7,6 C 0,0 km/h (0 Bft)
04.10.2015 04:50 7,3 C 23,4 C 8,5 C 7,5 C 7,5 C 0,2 C 86 % 89 % 0 % 1013,9 hPa 0,0 l/m 0,0 km/h (0 Bft) NW 315 0 min 5,1 C 7,5 C 0,0 km/h (0 Bft)
04.10.2015 04:55 7,2 C 23,4 C 8,4 C 7,4 C 7,4 C 0,2 C 86 % 89 % 0 % 1013,8 hPa 0,0 l/m 0,0 km/h (0 Bft) NW 315 0 min 5,0 C 7,4 C 0,0 km/h (0 Bft)
04.10.2015 05:00 7,2 C 23,4 C 8,3 C 7,4 C 7,4 C 0,2 C 86 % 89 % 0 % 1013,8 hPa 0,0 l/m 0,0 km/h (0 Bft) O-NO 67 0 min 5,0 C 7,4 C 0,0 km/h (0 Bft)
04.10.2015 05:05 7,1 C 23,4 C 8,3 C 7,4 C 7,4 C 0,3 C 85 % 89 % 0 % 1013,8 hPa 0,0 l/m 0,0 km/h (0 Bft) O-NO 67 0 min 4,8 C 7,4 C 0,0 km/h (0 Bft)
04.10.2015 05:10 7,1 C 23,4 C 8,2 C 7,3 C 7,3 C 0,2 C 85 % 89 % 0 % 1013,8 hPa 0,0 l/m 0,0 km/h (0 Bft) O-NO 67 0 min 4,8 C 7,3 C 0,0 km/h (0 Bft)
04.10.2015 05:15 7,1 C 23,4 C 8,3 C 7,3 C 7,3 C 0,2 C 86 % 90 % 0 % 1014,0 hPa 0,0 l/m 0,0 km/h (0 Bft) O-NO 67 0 min 4,9 C 7,3 C 0,0 km/h (0 Bft)
04.10.2015 05:20 7,0 C 23,4 C 8,3 C 7,4 C 7,4 C 0,4 C 86 % 90 % 0 % 1014,0 hPa 0,0 l/m 0,0 km/h (0 Bft) SO 135 0 min 4,8 C 7,4 C 0,0 km/h (0 Bft)
04.10.2015 05:25 7,0 C 23,4 C 8,3 C 7,3 C 7,3 C 0,3 C 86 % 90 % 0 % 1014,0 hPa 0,0 l/m 0,0 km/h (0 Bft) W-SW 247 0 min 4,8 C 7,3 C 0,0 km/h (0 Bft)
04.10.2015 05:30 6,9 C 23,4 C 8,1 C 7,2 C 7,2 C 0,3 C 86 % 90 % 0 % 1014,0 hPa 0,0 l/m 0,3 km/h (0 Bft) N-NO 22 0 min 4,7 C 7,2 C 0,0 km/h (0 Bft)
04.10.2015 05:35 7,0 C 23,4 C 8,0 C 7,3 C 7,3 C 0,3 C 87 % 90 % 0 % 1013,7 hPa 0,0 l/m 0,3 km/h (0 Bft) NO 45 0 min 5,0 C 7,3 C 0,0 km/h (0 Bft)
04.10.2015 05:40 6,9 C 23,4 C 8,0 C 7,4 C 7,4 C 0,5 C 87 % 90 % 0 % 1013,7 hPa 0,0 l/m 0,0 km/h (0 Bft) O-NO 67 0 min 4,9 C 7,4 C 0,0 km/h (0 Bft)
04.10.2015 05:45 7,0 C 23,4 C 8,0 C 7,6 C 7,6 C 0,6 C 87 % 90 % 0 % 1013,7 hPa 0,0 l/m 0,0 km/h (0 Bft) O 90 0 min 5,0 C 7,6 C 0,0 km/h (0 Bft)
04.10.2015 05:50 6,9 C 23,4 C 8,0 C 7,6 C 7,6 C 0,7 C 87 % 90 % 0 % 1013,7 hPa 0,0 l/m 0,0 km/h (0 Bft) SW 225 0 min 4,9 C 7,6 C 0,0 km/h (0 Bft)
04.10.2015 05:55 6,8 C 23,4 C 8,1 C 7,5 C 7,5 C 0,7 C 87 % 90 % 0 % 1014,1 hPa 0,0 l/m 0,0 km/h (0 Bft) SW 225 0 min 4,8 C 7,5 C 0,0 km/h (0 Bft)
04.10.2015 06:00 6,9 C 23,4 C 8,0 C 7,5 C 7,5 C 0,6 C 87 % 90 % 0 % 1014,1 hPa 0,0 l/m 0,0 km/h (0 Bft) O-NO 67 0 min 4,9 C 7,5 C 0,0 km/h (0 Bft)
04.10.2015 06:05 6,9 C 23,4 C 8,0 C 7,5 C 7,5 C 0,6 C 88 % 90 % 0 % 1014,1 hPa 0,0 l/m 0,0 km/h (0 Bft) O-NO 67 0 min 5,1 C 7,5 C 0,0 km/h (0 Bft)
04.10.2015 06:10 6,9 C 23,4 C 7,9 C 7,6 C 7,6 C 0,7 C 88 % 90 % 0 % 1014,1 hPa 0,0 l/m 0,0 km/h (0 Bft) O-NO 67 0 min 5,1 C 7,6 C 0,0 km/h (0 Bft)
04.10.2015 06:15 7,1 C 23,4 C 8,0 C 7,7 C 7,7 C 0,6 C 88 % 90 % 0 % 1014,2 hPa 0,0 l/m 0,0 km/h (0 Bft) O-NO 67 0 min 5,2 C 7,7 C 0,0 km/h (0 Bft)
04.10.2015 06:20 7,2 C 23,4 C 8,0 C 7,8 C 7,8 C 0,6 C 88 % 90 % 0 % 1014,2 hPa 0,0 l/m 0,0 km/h (0 Bft) O-NO 67 0 min 5,3 C 7,8 C 0,0 km/h (0 Bft)
04.10.2015 06:25 7,2 C 23,4 C 8,0 C 7,9 C 7,9 C 0,7 C 88 % 90 % 0 % 1014,2 hPa 0,0 l/m 0,0 km/h (0 Bft) O-NO 67 0 min 5,3 C 7,9 C 0,0 km/h (0 Bft)
04.10.2015 06:30 7,2 C 23,4 C 7,9 C 7,8 C 7,8 C 0,6 C 88 % 90 % 0 % 1014,2 hPa 0,0 l/m 0,0 km/h (0 Bft) O-NO 67 0 min 5,3 C 7,8 C 0,0 km/h (0 Bft)
04.10.2015 06:35 7,2 C 23,4 C 7,9 C 7,9 C 7,9 C 0,7 C 88 % 90 % 0 % 1014,2 hPa 0,0 l/m 0,0 km/h (0 Bft) O-NO 67 0 min 5,3 C 7,9 C 0,0 km/h (0 Bft)
04.10.2015 06:41 7,2 C 23,4 C 8,0 C 7,6 C 7,6 C 0,4 C 88 % 90 % 0 % 1014,2 hPa 0,0 l/m 0,0 km/h (0 Bft) N 0 0 min 5,3 C 7,6 C 0,0 km/h (0 Bft)
04.10.2015 06:50 7,1 C 23,4 C 8,0 C 7,6 C 7,6 C 0,5 C 88 % 90 % 0 % 1014,2 hPa 0,0 l/m 0,0 km/h (0 Bft) O-NO 67 0 min 5,2 C 7,6 C 0,0 km/h (0 Bft)
04.10.2015 06:55 7,0 C 23,4 C 7,9 C 7,5 C 7,5 C 0,5 C 88 % 90 % 0 % 1014,3 hPa 0,0 l/m 0,0 km/h (0 Bft) O-NO 67 0 min 5,2 C 7,5 C 0,0 km/h (0 Bft)
04.10.2015 07:00 6,9 C 23,4 C 7,8 C 7,4 C 7,4 C 0,5 C 88 % 90 % 0 % 1014,3 hPa 0,0 l/m 0,0 km/h (0 Bft) W-SW 247 0 min 5,1 C 7,4 C 0,0 km/h (0 Bft)
04.10.2015 07:05 6,7 C 23,4 C 7,8 C 7,0 C 7,0 C 0,3 C 88 % 90 % 0 % 1014,3 hPa 0,0 l/m 0,0 km/h (0 Bft) W-SW 247 0 min 4,9 C 7,0 C 0,0 km/h (0 Bft)
04.10.2015 07:10 6,7 C 23,4 C 7,7 C 7,0 C 7,0 C 0,3 C 88 % 90 % 0 % 1014,3 hPa 0,0 l/m 0,0 km/h (0 Bft) W-SW 247 0 min 4,9 C 7,0 C 0,0 km/h (0 Bft)
04.10.2015 07:15 6,5 C 23,4 C 7,7 C 6,9 C 6,9 C 0,4 C 88 % 90 % 0 % 1014,1 hPa 0,0 l/m 0,0 km/h (0 Bft) SW 225 0 min 4,7 C 6,9 C 0,0 km/h (0 Bft)
04.10.2015 07:20 6,5 C 23,4 C 7,6 C 6,7 C 6,7 C 0,2 C 88 % 90 % 0 % 1014,1 hPa 0,0 l/m 0,0 km/h (0 Bft) SW 225 0 min 4,7 C 6,7 C 0,0 km/h (0 Bft)
04.10.2015 07:25 6,3 C 23,3 C 7,5 C 6,6 C 6,6 C 0,3 C 87 % 90 % 8 % 1014,1 hPa 0,0 l/m 0,0 km/h (0 Bft) SW 225 5 min 4,3 C 6,6 C 0,0 km/h (0 Bft)
04.10.2015 07:30 6,3 C 23,3 C 7,5 C 6,6 C 6,6 C 0,3 C 87 % 90 % 8 % 1014,1 hPa 0,0 l/m 0,0 km/h (0 Bft) W-SW 247 5 min 4,3 C 6,6 C 0,0 km/h (0 Bft)
04.10.2015 07:35 6,2 C 23,4 C 7,4 C 6,6 C 6,6 C 0,4 C 88 % 90 % 11 % 1014,2 hPa 0,0 l/m 0,0 km/h (0 Bft) W-SW 247 0 min 4,4 C 6,6 C 0,0 km/h (0 Bft)
04.10.2015 07:40 6,3 C 23,3 C 7,4 C 6,9 C 6,9 C 0,6 C 88 % 90 % 16 % 1014,2 hPa 0,0 l/m 0,0 km/h (0 Bft) W-SW 247 5 min 4,5 C 6,9 C 0,0 km/h (0 Bft)
04.10.2015 07:45 6,4 C 23,3 C 7,5 C 7,2 C 7,2 C 0,8 C 88 % 90 % 21 % 1014,2 hPa 0,0 l/m 0,0 km/h (0 Bft) W-SW 247 5 min 4,6 C 7,2 C 0,0 km/h (0 Bft)
04.10.2015 07:50 6,4 C 23,3 C 7,6 C 7,4 C 7,4 C 1,0 C 88 % 90 % 26 % 1014,2 hPa 0,0 l/m 0,0 km/h (0 Bft) W-SW 247 5 min 4,6 C 7,4 C 0,0 km/h (0 Bft)
04.10.2015 07:55 6,8 C 23,3 C 7,6 C 7,9 C 7,9 C 1,1 C 89 % 90 % 29 % 1014,1 hPa 0,0 l/m 0,0 km/h (0 Bft) O 90 5 min 5,1 C 7,9 C 0,0 km/h (0 Bft)
04.10.2015 08:00 6,9 C 23,3 C 7,8 C 8,2 C 8,2 C 1,3 C 89 % 90 % 34 % 1014,1 hPa 0,0 l/m 0,0 km/h (0 Bft) O 90 5 min 5,2 C 8,2 C 0,0 km/h (0 Bft)
04.10.2015 08:05 7,0 C 23,3 C 7,8 C 8,4 C 8,4 C 1,4 C 89 % 90 % 37 % 1014,1 hPa 0,0 l/m 0,0 km/h (0 Bft) O-NO 67 5 min 5,3 C 8,4 C 0,0 km/h (0 Bft)
04.10.2015 08:10 6,9 C 23,3 C 7,9 C 8,6 C 8,6 C 1,7 C 89 % 90 % 45 % 1014,1 hPa 0,0 l/m 0,0 km/h (0 Bft) O-NO 67 5 min 5,2 C 8,6 C 0,0 km/h (0 Bft)
04.10.2015 08:15 7,0 C 23,3 C 8,0 C 8,6 C 8,6 C 1,6 C 89 % 90 % 42 % 1014,6 hPa 0,0 l/m 0,0 km/h (0 Bft) O-NO 67 5 min 5,3 C 8,6 C 0,0 km/h (0 Bft)
04.10.2015 08:20 7,2 C 23,3 C 8,0 C 8,6 C 8,6 C 1,4 C 90 % 90 % 37 % 1014,6 hPa 0,0 l/m 0,0 km/h (0 Bft) O-NO 67 0 min 5,7 C 8,6 C 0,0 km/h (0 Bft)
04.10.2015 08:25 7,2 C 23,3 C 8,3 C 8,7 C 8,7 C 1,5 C 90 % 90 % 39 % 1014,6 hPa 0,0 l/m 0,0 km/h (0 Bft) O-SO 112 0 min 5,7 C 8,7 C 0,0 km/h (0 Bft)
04.10.2015 08:30 7,3 C 23,3 C 8,5 C 9,0 C 9,0 C 1,7 C 90 % 90 % 45 % 1014,6 hPa 0,0 l/m 0,0 km/h (0 Bft) O-SO 112 0 min 5,8 C 9,0 C 0,0 km/h (0 Bft)
04.10.2015 08:35 7,5 C 23,3 C 8,6 C 9,7 C 9,7 C 2,2 C 90 % 90 % 58 % 1014,6 hPa 0,0 l/m 0,0 km/h (0 Bft) O-SO 112 5 min 6,0 C 9,7 C 0,0 km/h (0 Bft)
04.10.2015 08:40 7,6 C 23,3 C 8,7 C 9,9 C 9,9 C 2,3 C 90 % 90 % 61 % 1014,6 hPa 0,0 l/m 0,0 km/h (0 Bft) O-SO 112 5 min 6,1 C 9,9 C 0,0 km/h (0 Bft)
04.10.2015 08:45 7,7 C 23,2 C 8,9 C 9,9 C 9,9 C 2,2 C 90 % 90 % 58 % 1014,6 hPa 0,0 l/m 0,0 km/h (0 Bft) S 180 0 min 6,2 C 9,9 C 0,0 km/h (0 Bft)
04.10.2015 08:50 7,9 C 23,0 C 9,1 C 9,9 C 9,9 C 2,0 C 90 % 90 % 53 % 1014,6 hPa 0,0 l/m 0,0 km/h (0 Bft) S 180 0 min 6,4 C 9,9 C 0,0 km/h (0 Bft)
04.10.2015 08:55 7,9 C 23,0 C 9,3 C 10,1 C 10,1 C 2,2 C 90 % 90 % 58 % 1015,0 hPa 0,0 l/m 0,0 km/h (0 Bft) S-SO 157 0 min 6,4 C 10,1 C 0,0 km/h (0 Bft)
04.10.2015 09:00 8,1 C 23,0 C 9,5 C 10,2 C 10,2 C 2,1 C 90 % 90 % 55 % 1015,0 hPa 0,0 l/m 0,0 km/h (0 Bft) S 180 0 min 6,6 C 10,2 C 0,0 km/h (0 Bft)
04.10.2015 09:05 8,3 C 22,9 C 9,7 C 10,6 C 10,6 C 2,3 C 91 % 90 % 61 % 1015,0 hPa 0,0 l/m 0,0 km/h (0 Bft) S 180 0 min 6,9 C 10,6 C 0,0 km/h (0 Bft)
04.10.2015 09:10 8,4 C 22,9 C 9,9 C 10,8 C 10,8 C 2,4 C 91 % 89 % 63 % 1015,0 hPa 0,0 l/m 0,0 km/h (0 Bft) W 270 0 min 7,0 C 10,8 C 0,0 km/h (0 Bft)
04.10.2015 09:15 8,6 C 22,9 C 10,1 C 11,0 C 11,0 C 2,4 C 91 % 89 % 63 % 1015,1 hPa 0,0 l/m 0,0 km/h (0 Bft) S-SW 202 0 min 7,2 C 11,0 C 0,0 km/h (0 Bft)
04.10.2015 09:20 8,9 C 22,9 C 10,3 C 11,2 C 11,2 C 2,3 C 91 % 90 % 61 % 1015,1 hPa 0,0 l/m 0,0 km/h (0 Bft) S-SW 202 0 min 7,5 C 11,2 C 0,0 km/h (0 Bft)
04.10.2015 09:25 9,1 C 22,9 C 10,5 C 11,6 C 11,6 C 2,5 C 91 % 90 % 66 % 1015,1 hPa 0,0 l/m 0,0 km/h (0 Bft) S 180 0 min 7,7 C 11,6 C 0,0 km/h (0 Bft)
04.10.2015 09:30 9,2 C 22,9 C 10,7 C 11,9 C 11,9 C 2,7 C 91 % 90 % 71 % 1015,1 hPa 0,0 l/m 0,2 km/h (0 Bft) S-SW 202 0 min 7,8 C 11,9 C 0,0 km/h (0 Bft)
04.10.2015 09:35 9,5 C 22,9 C 11,0 C 12,2 C 12,2 C 2,7 C 91 % 89 % 71 % 1015,1 hPa 0,0 l/m 0,2 km/h (0 Bft) SO 135 0 min 8,1 C 12,2 C 0,0 km/h (0 Bft)
04.10.2015 09:41 9,8 C 22,8 C 11,3 C 12,7 C 12,7 C 2,9 C 91 % 89 % 76 % 1015,1 hPa 0,0 l/m 1,0 km/h (0 Bft) N 0 0 min 8,4 C 12,7 C 0,0 km/h (0 Bft)
04.10.2015 09:50 10,1 C 22,9 C 11,5 C 12,8 C 12,8 C 2,7 C 91 % 89 % 71 % 1015,1 hPa 0,0 l/m 1,0 km/h (0 Bft) SW 225 0 min 8,7 C 12,8 C 3,5 km/h (1 Bft)
04.10.2015 09:55 10,2 C 22,9 C 11,6 C 13,3 C 13,3 C 3,1 C 91 % 89 % 82 % 1015,1 hPa 0,0 l/m 0,6 km/h (0 Bft) S-SO 157 0 min 8,8 C 13,3 C 3,7 km/h (1 Bft)
04.10.2015 10:00 10,4 C 22,9 C 11,9 C 13,7 C 13,7 C 3,3 C 91 % 90 % 87 % 1015,1 hPa 0,0 l/m 1,0 km/h (0 Bft) SW 225 5 min 9,0 C 13,7 C 0,0 km/h (0 Bft)
04.10.2015 10:05 10,7 C 22,8 C 12,1 C 14,0 C 14,0 C 3,3 C 91 % 90 % 87 % 1015,1 hPa 0,0 l/m 0,8 km/h (0 Bft) SW 225 5 min 9,3 C 14,0 C 0,0 km/h (0 Bft)
04.10.2015 10:10 10,8 C 22,9 C 12,2 C 14,3 C 14,3 C 3,5 C 92 % 90 % 92 % 1015,1 hPa 0,0 l/m 0,3 km/h (0 Bft) W-SW 247 5 min 9,6 C 14,3 C 2,6 km/h (1 Bft)
04.10.2015 10:15 11,1 C 22,9 C 12,4 C 14,7 C 14,7 C 3,6 C 92 % 89 % 95 % 1014,9 hPa 0,0 l/m 0,3 km/h (0 Bft) SO 135 5 min 9,8 C 14,7 C 0,0 km/h (0 Bft)
04.10.2015 10:20 11,3 C 22,8 C 12,6 C 14,8 C 14,8 C 3,5 C 92 % 89 % 92 % 1014,9 hPa 0,0 l/m 0,6 km/h (0 Bft) S 180 5 min 10,0 C 14,8 C 4,2 km/h (1 Bft)
04.10.2015 10:25 11,5 C 22,8 C 12,7 C 14,8 C 14,8 C 3,3 C 92 % 89 % 87 % 1014,9 hPa 0,0 l/m 0,6 km/h (0 Bft) W-SW 247 5 min 10,2 C 14,8 C 0,0 km/h (0 Bft)
04.10.2015 10:30 11,4 C 22,8 C 12,6 C 14,9 C 14,9 C 3,5 C 92 % 89 % 92 % 1014,9 hPa 0,0 l/m 0,5 km/h (0 Bft) W 270 5 min 10,1 C 14,9 C 0,0 km/h (0 Bft)
04.10.2015 10:35 11,7 C 22,8 C 12,9 C 15,3 C 15,3 C 3,6 C 92 % 89 % 95 % 1015,3 hPa 0,0 l/m 0,0 km/h (0 Bft) S-SO 157 5 min 10,4 C 15,3 C 0,0 km/h (0 Bft)
04.10.2015 10:40 11,9 C 22,8 C 13,1 C 15,4 C 15,4 C 3,5 C 92 % 89 % 92 % 1015,3 hPa 0,0 l/m 0,2 km/h (0 Bft) W-SW 247 5 min 10,6 C 15,4 C 2,4 km/h (1 Bft)
04.10.2015 10:45 12,1 C 22,7 C 13,1 C 15,6 C 15,6 C 3,5 C 92 % 88 % 92 % 1015,3 hPa 0,0 l/m 0,5 km/h (0 Bft) W-SW 247 5 min 10,8 C 15,6 C 6,0 km/h (2 Bft)
04.10.2015 10:50 12,3 C 22,7 C 13,2 C 15,8 C 15,8 C 3,5 C 91 % 88 % 92 % 1015,3 hPa 0,0 l/m 0,5 km/h (0 Bft) SW 225 5 min 10,9 C 15,8 C 0,0 km/h (0 Bft)
04.10.2015 10:55 12,7 C 22,7 C 13,4 C 16,2 C 16,2 C 3,5 C 91 % 88 % 92 % 1015,5 hPa 0,0 l/m 0,5 km/h (0 Bft) W-SW 247 5 min 11,3 C 16,2 C 2,6 km/h (1 Bft)
04.10.2015 11:00 12,9 C 22,7 C 13,6 C 16,4 C 16,4 C 3,5 C 91 % 88 % 92 % 1015,5 hPa 0,0 l/m 0,3 km/h (0 Bft) N-NW 337 5 min 11,5 C 16,4 C 0,0 km/h (0 Bft)
04.10.2015 11:05 13,3 C 22,7 C 13,9 C 16,9 C 16,9 C 3,6 C 90 % 87 % 95 % 1015,5 hPa 0,0 l/m 0,3 km/h (0 Bft) S-SW 202 5 min 11,7 C 16,9 C 0,0 km/h (0 Bft)
04.10.2015 11:10 13,6 C 22,7 C 14,0 C 17,2 C 17,2 C 3,6 C 90 % 87 % 95 % 1015,5 hPa 0,0 l/m 0,6 km/h (0 Bft) W-SW 247 5 min 12,0 C 17,2 C 3,7 km/h (1 Bft)
04.10.2015 11:15 13,9 C 22,7 C 14,2 C 17,6 C 17,6 C 3,7 C 88 % 86 % 97 % 1015,3 hPa 0,0 l/m 1,3 km/h (1 Bft) S-SO 157 5 min 11,9 C 17,6 C 4,3 km/h (1 Bft)
04.10.2015 11:20 14,0 C 22,7 C 14,4 C 17,8 C 17,8 C 3,8 C 87 % 86 % 100 % 1015,3 hPa 0,0 l/m 1,4 km/h (1 Bft) S-SO 157 5 min 11,9 C 17,8 C 0,0 km/h (0 Bft)
04.10.2015 11:25 14,3 C 22,7 C 14,7 C 18,1 C 18,1 C 3,8 C 84 % 85 % 100 % 1015,3 hPa 0,0 l/m 1,6 km/h (1 Bft) SW 225 5 min 11,6 C 18,1 C 0,0 km/h (0 Bft)
04.10.2015 11:30 14,3 C 22,7 C 14,8 C 18,1 C 18,1 C 3,8 C 83 % 84 % 100 % 1015,3 hPa 0,0 l/m 1,9 km/h (1 Bft) S-SW 202 5 min 11,5 C 18,1 C 3,1 km/h (1 Bft)
04.10.2015 11:35 14,5 C 22,6 C 14,9 C 18,1 C 18,1 C 3,6 C 80 % 84 % 95 % 1015,4 hPa 0,0 l/m 1,6 km/h (1 Bft) SW 225 5 min 11,1 C 18,1 C 2,9 km/h (1 Bft)
04.10.2015 11:40 14,7 C 22,6 C 15,0 C 17,9 C 17,9 C 3,2 C 80 % 84 % 84 % 1015,4 hPa 0,0 l/m 1,4 km/h (1 Bft) N 360 0 min 11,3 C 17,9 C 0,0 km/h (0 Bft)
04.10.2015 11:45 14,8 C 22,6 C 14,9 C 17,7 C 17,7 C 2,9 C 78 % 83 % 76 % 1015,4 hPa 0,0 l/m 1,3 km/h (1 Bft) NW 315 0 min 11,0 C 17,7 C 7,6 km/h (2 Bft)
04.10.2015 11:50 14,9 C 22,6 C 15,1 C 17,7 C 17,7 C 2,8 C 77 % 83 % 74 % 1015,4 hPa 0,0 l/m 1,1 km/h (1 Bft) S-SO 157 0 min 10,9 C 17,7 C 4,7 km/h (1 Bft)
04.10.2015 11:55 15,1 C 22,6 C 15,2 C 18,0 C 18,0 C 2,9 C 77 % 83 % 76 % 1015,4 hPa 0,0 l/m 1,1 km/h (1 Bft) S 180 0 min 11,1 C 18,0 C 3,1 km/h (1 Bft)
04.10.2015 12:00 15,3 C 22,6 C 15,3 C 18,2 C 18,2 C 2,9 C 76 % 82 % 76 % 1015,4 hPa 0,0 l/m 1,3 km/h (1 Bft) W-SW 247 0 min 11,1 C 18,2 C 6,3 km/h (2 Bft)
04.10.2015 12:05 15,6 C 22,6 C 15,5 C 18,6 C 18,6 C 3,0 C 76 % 82 % 79 % 1015,4 hPa 0,0 l/m 1,0 km/h (0 Bft) W 270 0 min 11,4 C 18,6 C 0,0 km/h (0 Bft)
04.10.2015 12:10 15,8 C 22,7 C 15,5 C 18,9 C 18,9 C 3,1 C 75 % 82 % 82 % 1015,4 hPa 0,0 l/m 0,6 km/h (0 Bft) N-NO 22 0 min 11,4 C 18,9 C 2,6 km/h (1 Bft)
04.10.2015 12:15 16,3 C 22,7 C 15,7 C 19,1 C 19,1 C 2,8 C 74 % 81 % 74 % 1015,6 hPa 0,0 l/m 1,1 km/h (1 Bft) W 270 0 min 11,7 C 19,1 C 4,5 km/h (1 Bft)
04.10.2015 12:20 16,5 C 22,7 C 15,7 C 19,2 C 19,2 C 2,7 C 73 % 81 % 71 % 1015,6 hPa 0,0 l/m 1,3 km/h (1 Bft) W-SW 247 0 min 11,6 C 19,2 C 3,1 km/h (1 Bft)
04.10.2015 12:25 16,7 C 22,7 C 16,1 C 19,7 C 19,7 C 3,0 C 73 % 81 % 79 % 1015,6 hPa 0,0 l/m 1,4 km/h (1 Bft) SW 225 0 min 11,8 C 19,7 C 4,8 km/h (1 Bft)
04.10.2015 12:30 16,8 C 22,7 C 16,3 C 20,1 C 20,1 C 3,3 C 73 % 81 % 87 % 1015,6 hPa 0,0 l/m 1,3 km/h (1 Bft) S 180 5 min 11,9 C 20,1 C 1,6 km/h (1 Bft)
04.10.2015 12:35 17,3 C 22,7 C 16,4 C 20,8 C 20,8 C 3,5 C 72 % 79 % 92 % 1015,4 hPa 0,0 l/m 1,6 km/h (1 Bft) S-SO 157 5 min 12,2 C 20,8 C 3,2 km/h (1 Bft)
04.10.2015 12:41 17,9 C 22,7 C 16,7 C 23,9 C 23,9 C 6,0 C 71 % 78 % 100 % 1015,4 hPa 0,0 l/m 2,3 km/h (1 Bft) N 0 6 min 12,6 C 23,9 C 3,5 km/h (1 Bft)
04.10.2015 12:50 18,5 C 22,7 C 16,7 C 24,7 C 24,7 C 6,2 C 70 % 78 % 100 % 1015,4 hPa 0,0 l/m 2,1 km/h (1 Bft) W-SW 247 9 min 12,9 C 24,7 C 4,2 km/h (1 Bft)
04.10.2015 12:55 19,2 C 22,7 C 16,8 C 25,5 C 25,5 C 6,3 C 68 % 78 % 100 % 1015,4 hPa 0,0 l/m 1,9 km/h (1 Bft) S-SW 202 5 min 13,1 C 25,5 C 0,0 km/h (0 Bft)
04.10.2015 13:00 19,5 C 22,8 C 16,8 C 25,6 C 25,6 C 6,1 C 68 % 78 % 100 % 1015,4 hPa 0,0 l/m 1,3 km/h (1 Bft) O-SO 112 5 min 13,4 C 25,6 C 0,0 km/h (0 Bft)
04.10.2015 13:05 19,7 C 22,8 C 16,8 C 25,2 C 25,2 C 5,5 C 66 % 77 % 100 % 1015,4 hPa 0,0 l/m 1,3 km/h (1 Bft) SW 225 5 min 13,2 C 25,2 C 6,3 km/h (2 Bft)
04.10.2015 13:10 19,5 C 22,8 C 16,8 C 24,6 C 24,6 C 5,1 C 66 % 77 % 100 % 1015,4 hPa 0,0 l/m 1,4 km/h (1 Bft) O-NO 67 5 min 13,0 C 24,6 C 0,0 km/h (0 Bft)
04.10.2015 13:15 19,5 C 22,8 C 16,9 C 24,5 C 24,5 C 5,0 C 66 % 77 % 100 % 1015,2 hPa 0,0 l/m 1,6 km/h (1 Bft) W-NW 292 5 min 13,0 C 24,5 C 2,9 km/h (1 Bft)
04.10.2015 13:20 19,2 C 22,8 C 16,8 C 24,0 C 24,0 C 4,8 C 66 % 77 % 100 % 1015,2 hPa 0,0 l/m 1,6 km/h (1 Bft) S 180 5 min 12,7 C 24,0 C 0,0 km/h (0 Bft)
04.10.2015 13:25 19,2 C 22,8 C 16,9 C 23,3 C 23,3 C 4,1 C 66 % 77 % 100 % 1015,2 hPa 0,0 l/m 1,9 km/h (1 Bft) W-SW 247 5 min 12,7 C 23,3 C 1,8 km/h (1 Bft)
04.10.2015 13:30 19,1 C 22,8 C 16,9 C 23,2 C 23,2 C 4,1 C 66 % 76 % 100 % 1015,2 hPa 0,0 l/m 1,9 km/h (1 Bft) W 270 5 min 12,6 C 23,2 C 2,7 km/h (1 Bft)
04.10.2015 13:35 19,2 C 22,7 C 17,1 C 23,7 C 23,7 C 4,5 C 66 % 77 % 100 % 1015,2 hPa 0,0 l/m 2,1 km/h (1 Bft) SW 225 5 min 12,7 C 23,7 C 1,6 km/h (1 Bft)
04.10.2015 13:40 19,2 C 22,7 C 17,2 C 24,1 C 24,1 C 4,9 C 66 % 77 % 100 % 1015,2 hPa 0,0 l/m 1,6 km/h (1 Bft) N-NO 22 5 min 12,7 C 24,1 C 0,0 km/h (0 Bft)
04.10.2015 13:45 19,3 C 22,8 C 17,3 C 24,2 C 24,2 C 4,9 C 66 % 76 % 100 % 1015,2 hPa 0,0 l/m 1,1 km/h (1 Bft) S-SW 202 5 min 12,8 C 24,2 C 2,1 km/h (1 Bft)
04.10.2015 13:50 19,4 C 22,8 C 17,3 C 24,2 C 24,2 C 4,8 C 65 % 76 % 100 % 1015,2 hPa 0,0 l/m 1,1 km/h (1 Bft) SW 225 5 min 12,6 C 24,2 C 3,9 km/h (1 Bft)
04.10.2015 13:55 19,5 C 22,8 C 17,4 C 23,8 C 23,8 C 4,3 C 65 % 75 % 100 % 1015,0 hPa 0,0 l/m 1,6 km/h (1 Bft) SO 135 5 min 12,7 C 23,8 C 4,2 km/h (1 Bft)
04.10.2015 14:00 19,7 C 22,8 C 17,5 C 24,1 C 24,1 C 4,4 C 64 % 74 % 100 % 1015,0 hPa 0,0 l/m 2,1 km/h (1 Bft) W 270 5 min 12,7 C 24,1 C 8,0 km/h (2 Bft)
04.10.2015 14:05 19,9 C 22,8 C 17,8 C 24,9 C 24,9 C 5,0 C 63 % 74 % 100 % 1015,0 hPa 0,0 l/m 2,4 km/h (1 Bft) S 180 5 min 12,6 C 24,9 C 1,6 km/h (1 Bft)
04.10.2015 14:10 19,9 C 22,8 C 17,9 C 24,7 C 24,7 C 4,8 C 62 % 73 % 100 % 1015,0 hPa 0,0 l/m 2,6 km/h (1 Bft) W-SW 247 5 min 12,4 C 24,7 C 3,4 km/h (1 Bft)
04.10.2015 14:15 19,9 C 22,8 C 17,9 C 24,1 C 24,1 C 4,2 C 62 % 73 % 100 % 1015,3 hPa 0,0 l/m 1,9 km/h (1 Bft) W 270 5 min 12,4 C 24,1 C 2,1 km/h (1 Bft)
04.10.2015 14:20 19,9 C 22,8 C 17,9 C 23,8 C 23,8 C 3,9 C 62 % 73 % 100 % 1015,3 hPa 0,0 l/m 1,6 km/h (1 Bft) S 180 5 min 12,4 C 23,8 C 2,4 km/h (1 Bft)
04.10.2015 14:25 19,8 C 22,8 C 17,9 C 23,6 C 23,6 C 3,8 C 62 % 72 % 100 % 1015,3 hPa 0,0 l/m 1,6 km/h (1 Bft) SW 225 5 min 12,3 C 23,6 C 3,7 km/h (1 Bft)
04.10.2015 14:30 19,9 C 22,8 C 18,0 C 23,2 C 23,2 C 3,3 C 62 % 72 % 87 % 1015,3 hPa 0,0 l/m 1,9 km/h (1 Bft) W 270 5 min 12,4 C 23,2 C 2,7 km/h (1 Bft)
04.10.2015 14:35 19,9 C 22,9 C 17,9 C 22,6 C 22,6 C 2,7 C 63 % 72 % 71 % 1015,0 hPa 0,0 l/m 1,6 km/h (1 Bft) SW 225 0 min 12,6 C 22,6 C 2,6 km/h (1 Bft)
04.10.2015 14:40 19,9 C 22,9 C 18,0 C 22,5 C 22,5 C 2,6 C 62 % 72 % 68 % 1015,0 hPa 0,0 l/m 0,8 km/h (0 Bft) W 270 0 min 12,4 C 22,5 C 0,0 km/h (0 Bft)
04.10.2015 14:45 20,0 C 22,9 C 18,1 C 22,3 C 22,3 C 2,3 C 62 % 71 % 61 % 1015,0 hPa 0,0 l/m 0,6 km/h (0 Bft) S 180 0 min 12,5 C 22,3 C 2,9 km/h (1 Bft)
04.10.2015 14:50 20,0 C 22,9 C 18,1 C 22,2 C 22,2 C 2,2 C 62 % 72 % 58 % 1015,0 hPa 0,0 l/m 0,8 km/h (0 Bft) W-SW 247 0 min 12,5 C 22,2 C 0,0 km/h (0 Bft)
04.10.2015 14:55 20,1 C 22,9 C 18,1 C 22,0 C 22,0 C 1,9 C 62 % 71 % 50 % 1015,0 hPa 0,0 l/m 1,0 km/h (0 Bft) W-SW 247 0 min 12,6 C 22,0 C 0,0 km/h (0 Bft)
04.10.2015 15:00 20,1 C 22,9 C 18,1 C 21,9 C 21,9 C 1,8 C 62 % 71 % 47 % 1015,0 hPa 0,0 l/m 0,6 km/h (0 Bft) SW 225 0 min 12,6 C 21,9 C 2,6 km/h (1 Bft)
04.10.2015 15:05 20,0 C 22,9 C 18,1 C 21,7 C 21,7 C 1,7 C 61 % 71 % 45 % 1015,0 hPa 0,0 l/m 0,6 km/h (0 Bft) W 270 0 min 12,2 C 21,7 C 0,0 km/h (0 Bft)
04.10.2015 15:10 20,0 C 22,9 C 18,0 C 21,5 C 21,5 C 1,5 C 61 % 71 % 39 % 1015,0 hPa 0,0 l/m 1,0 km/h (0 Bft) SW 225 0 min 12,2 C 21,5 C 2,6 km/h (1 Bft)
04.10.2015 15:15 19,9 C 22,9 C 18,0 C 21,1 C 21,1 C 1,2 C 61 % 71 % 32 % 1015,2 hPa 0,0 l/m 1,4 km/h (1 Bft) W-SW 247 0 min 12,2 C 21,1 C 1,6 km/h (1 Bft)
04.10.2015 15:20 19,8 C 22,9 C 18,0 C 20,8 C 20,8 C 1,0 C 61 % 70 % 26 % 1015,2 hPa 0,0 l/m 1,8 km/h (1 Bft) S 180 0 min 12,1 C 20,8 C 1,8 km/h (1 Bft)
04.10.2015 15:25 19,7 C 23,0 C 17,9 C 20,6 C 20,6 C 0,9 C 61 % 70 % 24 % 1015,2 hPa 0,0 l/m 1,4 km/h (1 Bft) S 180 0 min 12,0 C 20,6 C 0,0 km/h (0 Bft)
04.10.2015 15:30 19,6 C 23,0 C 17,9 C 20,6 C 20,6 C 1,0 C 62 % 70 % 26 % 1015,2 hPa 0,0 l/m 1,0 km/h (0 Bft) SW 225 0 min 12,1 C 20,6 C 3,2 km/h (1 Bft)
04.10.2015 15:35 19,7 C 23,0 C 17,9 C 20,5 C 20,5 C 0,8 C 62 % 71 % 21 % 1014,9 hPa 0,0 l/m 0,6 km/h (0 Bft) W-SW 247 0 min 12,2 C 20,5 C 0,0 km/h (0 Bft)
04.10.2015 15:41 19,7 C 23,0 C 17,7 C 20,5 C 20,5 C 0,8 C 62 % 72 % 21 % 1014,9 hPa 0,0 l/m 0,2 km/h (0 Bft) N 0 0 min 12,2 C 20,5 C 2,6 km/h (1 Bft)
04.10.2015 15:50 19,6 C 23,0 C 17,7 C 20,5 C 20,5 C 0,9 C 62 % 72 % 24 % 1014,9 hPa 0,0 l/m 0,3 km/h (0 Bft) W 270 0 min 12,1 C 20,5 C 0,0 km/h (0 Bft)
04.10.2015 15:55 19,7 C 23,0 C 17,7 C 20,4 C 20,4 C 0,7 C 63 % 72 % 18 % 1014,8 hPa 0,0 l/m 0,6 km/h (0 Bft) SW 225 0 min 12,5 C 20,4 C 0,0 km/h (0 Bft)
04.10.2015 16:00 19,6 C 23,0 C 17,7 C 20,4 C 20,4 C 0,8 C 62 % 72 % 21 % 1014,8 hPa 0,0 l/m 0,5 km/h (0 Bft) W 270 0 min 12,1 C 20,4 C 0,0 km/h (0 Bft)
04.10.2015 16:05 19,5 C 23,1 C 17,7 C 20,2 C 20,2 C 0,7 C 63 % 72 % 18 % 1014,8 hPa 0,0 l/m 0,2 km/h (0 Bft) W-SW 247 0 min 12,3 C 20,2 C 0,0 km/h (0 Bft)
04.10.2015 16:10 19,4 C 23,1 C 17,6 C 20,1 C 20,1 C 0,7 C 63 % 73 % 18 % 1014,8 hPa 0,0 l/m 0,2 km/h (0 Bft) W 270 0 min 12,2 C 20,1 C 1,9 km/h (1 Bft)
04.10.2015 16:15 19,4 C 23,1 C 17,5 C 19,9 C 19,9 C 0,5 C 63 % 73 % 13 % 1014,7 hPa 0,0 l/m 0,3 km/h (0 Bft) S-SW 202 0 min 12,2 C 19,9 C 0,0 km/h (0 Bft)
04.10.2015 16:20 19,3 C 23,1 C 17,3 C 19,7 C 19,7 C 0,4 C 63 % 73 % 11 % 1014,7 hPa 0,0 l/m 0,8 km/h (0 Bft) W-SW 247 0 min 12,1 C 19,7 C 2,1 km/h (1 Bft)
04.10.2015 16:25 19,2 C 23,1 C 17,2 C 19,4 C 19,4 C 0,2 C 63 % 73 % 5 % 1014,7 hPa 0,0 l/m 0,6 km/h (0 Bft) W 270 0 min 12,0 C 19,4 C 2,1 km/h (1 Bft)
04.10.2015 16:30 19,1 C 23,1 C 17,2 C 19,2 C 19,2 C 0,1 C 63 % 73 % 3 % 1014,7 hPa 0,0 l/m 0,5 km/h (0 Bft) S 180 0 min 11,9 C 19,2 C 0,0 km/h (0 Bft)
04.10.2015 16:35 19,1 C 23,1 C 17,2 C 19,1 C 19,1 C 0,0 C 63 % 73 % 0 % 1014,8 hPa 0,0 l/m 0,2 km/h (0 Bft) W-SW 247 0 min 11,9 C 19,1 C 1,8 km/h (1 Bft)
04.10.2015 16:40 18,9 C 23,1 C 17,1 C 19,0 C 19,0 C 0,1 C 64 % 74 % 3 % 1014,8 hPa 0,0 l/m 0,2 km/h (0 Bft) W-SW 247 0 min 11,9 C 19,0 C 0,0 km/h (0 Bft)
04.10.2015 16:45 18,9 C 23,1 C 17,1 C 19,0 C 19,0 C 0,1 C 64 % 74 % 3 % 1014,8 hPa 0,0 l/m 0,2 km/h (0 Bft) W-SW 247 0 min 11,9 C 19,0 C 0,0 km/h (0 Bft)
04.10.2015 16:50 18,9 C 23,1 C 17,0 C 19,0 C 19,0 C 0,1 C 65 % 74 % 3 % 1014,8 hPa 0,0 l/m 0,2 km/h (0 Bft) SW 225 0 min 12,2 C 19,0 C 0,0 km/h (0 Bft)
04.10.2015 16:55 18,8 C 23,2 C 17,0 C 19,0 C 19,0 C 0,2 C 65 % 75 % 5 % 1015,1 hPa 0,0 l/m 0,3 km/h (0 Bft) W-SW 247 0 min 12,1 C 19,0 C 0,0 km/h (0 Bft)
04.10.2015 17:00 18,9 C 23,2 C 17,0 C 19,0 C 19,0 C 0,1 C 65 % 75 % 3 % 1015,1 hPa 0,0 l/m 0,2 km/h (0 Bft) SW 225 0 min 12,2 C 19,0 C 0,0 km/h (0 Bft)
04.10.2015 17:05 18,7 C 23,2 C 16,9 C 18,8 C 18,8 C 0,1 C 66 % 75 % 3 % 1015,1 hPa 0,0 l/m 0,0 km/h (0 Bft) S 180 0 min 12,2 C 18,8 C 0,0 km/h (0 Bft)
04.10.2015 17:10 18,7 C 23,2 C 16,9 C 18,7 C 18,7 C 0,0 C 66 % 75 % 0 % 1015,1 hPa 0,0 l/m 0,0 km/h (0 Bft) W 270 0 min 12,2 C 18,7 C 0,0 km/h (0 Bft)
04.10.2015 17:15 18,5 C 23,2 C 16,8 C 18,6 C 18,6 C 0,1 C 67 % 75 % 3 % 1014,9 hPa 0,0 l/m 0,0 km/h (0 Bft) S 180 0 min 12,3 C 18,6 C 0,0 km/h (0 Bft)
04.10.2015 17:20 18,4 C 23,2 C 16,8 C 18,5 C 18,5 C 0,1 C 67 % 75 % 3 % 1014,9 hPa 0,0 l/m 0,0 km/h (0 Bft) S 180 0 min 12,2 C 18,5 C 0,0 km/h (0 Bft)
04.10.2015 17:25 18,4 C 23,2 C 16,8 C 18,4 C 18,4 C 0,0 C 67 % 75 % 0 % 1014,9 hPa 0,0 l/m 0,0 km/h (0 Bft) SW 225 0 min 12,2 C 18,4 C 0,0 km/h (0 Bft)
04.10.2015 17:30 18,3 C 23,2 C 16,8 C 18,3 C 18,3 C 0,0 C 67 % 75 % 0 % 1014,9 hPa 0,0 l/m 0,0 km/h (0 Bft) SW 225 0 min 12,1 C 18,3 C 0,0 km/h (0 Bft)
04.10.2015 17:35 18,2 C 23,2 C 16,7 C 18,2 C 18,1 C 0,0 C 67 % 75 % 0 % 1014,9 hPa 0,0 l/m 0,0 km/h (0 Bft) W-SW 247 0 min 12,0 C 18,1 C 0,0 km/h (0 Bft)
04.10.2015 17:40 18,1 C 23,3 C 16,7 C 18,1 C 18,0 C 0,0 C 67 % 76 % 0 % 1014,9 hPa 0,0 l/m 0,0 km/h (0 Bft) W-SW 247 0 min 11,9 C 18,0 C 0,0 km/h (0 Bft)
04.10.2015 17:45 18,1 C 23,3 C 16,5 C 18,0 C 17,8 C 0,0 C 68 % 76 % 0 % 1014,9 hPa 0,0 l/m 0,0 km/h (0 Bft) W-SW 247 0 min 12,1 C 17,8 C 0,0 km/h (0 Bft)
04.10.2015 17:50 17,9 C 23,3 C 16,4 C 17,8 C 17,5 C 0,0 C 68 % 77 % 0 % 1014,9 hPa 0,0 l/m 0,0 km/h (0 Bft) W-SW 247 0 min 11,9 C 17,5 C 1,8 km/h (1 Bft)
04.10.2015 17:55 17,7 C 23,4 C 16,3 C 17,5 C 17,1 C 0,0 C 68 % 77 % 0 % 1015,1 hPa 0,0 l/m 0,0 km/h (0 Bft) O-SO 112 0 min 11,7 C 17,1 C 0,0 km/h (0 Bft)
04.10.2015 18:00 17,7 C 23,4 C 16,0 C 17,4 C 16,9 C 0,0 C 68 % 77 % 0 % 1015,1 hPa 0,0 l/m 0,0 km/h (0 Bft) O-SO 112 0 min 11,7 C 16,9 C 0,0 km/h (0 Bft)
04.10.2015 18:05 17,3 C 23,4 C 15,6 C 17,0 C 16,4 C 0,0 C 69 % 78 % 0 % 1015,1 hPa 0,0 l/m 0,0 km/h (0 Bft) O-SO 112 0 min 11,6 C 16,4 C 0,0 km/h (0 Bft)
04.10.2015 18:10 17,2 C 23,4 C 15,6 C 16,9 C 16,2 C 0,0 C 70 % 78 % 0 % 1015,1 hPa 0,0 l/m 0,0 km/h (0 Bft) O-SO 112 0 min 11,7 C 16,2 C 0,0 km/h (0 Bft)
04.10.2015 18:15 16,8 C 23,4 C 15,3 C 16,5 C 15,9 C 0,0 C 71 % 79 % 0 % 1015,1 hPa 0,0 l/m 0,0 km/h (0 Bft) O-SO 112 0 min 11,5 C 15,9 C 0,0 km/h (0 Bft)
04.10.2015 18:20 16,7 C 23,5 C 15,2 C 16,4 C 15,7 C 0,0 C 72 % 80 % 0 % 1015,1 hPa 0,0 l/m 0,0 km/h (0 Bft) O-SO 112 0 min 11,6 C 15,7 C 0,0 km/h (0 Bft)
04.10.2015 18:25 16,4 C 23,5 C 15,0 C 16,1 C 15,4 C 0,0 C 72 % 80 % 0 % 1015,1 hPa 0,0 l/m 0,0 km/h (0 Bft) O-SO 112 0 min 11,3 C 15,4 C 0,0 km/h (0 Bft)
04.10.2015 18:30 16,3 C 23,5 C 15,1 C 16,0 C 15,4 C 0,0 C 73 % 80 % 0 % 1015,1 hPa 0,0 l/m 0,0 km/h (0 Bft) O-SO 112 0 min 11,4 C 15,4 C 0,0 km/h (0 Bft)
04.10.2015 18:35 16,1 C 23,5 C 14,8 C 15,8 C 15,2 C 0,0 C 74 % 81 % 0 % 1015,1 hPa 0,0 l/m 0,0 km/h (0 Bft) O-SO 112 0 min 11,5 C 15,2 C 0,0 km/h (0 Bft)
04.10.2015 18:41 15,9 C 23,5 C 14,7 C 15,6 C 14,9 C 0,0 C 74 % 82 % 0 % 1015,1 hPa 0,0 l/m 0,0 km/h (0 Bft) N 0 0 min 11,3 C 14,9 C 0,0 km/h (0 Bft)
04.10.2015 18:50 15,7 C 23,5 C 14,4 C 15,4 C 14,8 C 0,0 C 75 % 82 % 0 % 1015,1 hPa 0,0 l/m 0,0 km/h (0 Bft) O-SO 112 0 min 11,3 C 14,8 C 0,0 km/h (0 Bft)
04.10.2015 18:55 15,4 C 23,6 C 14,3 C 15,1 C 14,6 C 0,0 C 76 % 83 % 0 % 1014,9 hPa 0,0 l/m 0,0 km/h (0 Bft) O-SO 112 0 min 11,2 C 14,6 C 0,0 km/h (0 Bft)
04.10.2015 19:00 15,3 C 23,6 C 14,3 C 15,0 C 14,5 C 0,0 C 76 % 83 % 0 % 1014,9 hPa 0,0 l/m 0,0 km/h (0 Bft) O-SO 112 0 min 11,1 C 14,5 C 0,0 km/h (0 Bft)
04.10.2015 19:05 14,9 C 23,6 C 14,1 C 14,7 C 14,4 C 0,0 C 77 % 83 % 0 % 1014,9 hPa 0,0 l/m 0,0 km/h (0 Bft) O-SO 112 0 min 10,9 C 14,4 C 0,0 km/h (0 Bft)
04.10.2015 19:10 14,9 C 23,6 C 14,0 C 14,7 C 14,3 C 0,0 C 77 % 83 % 0 % 1014,9 hPa 0,0 l/m 0,0 km/h (0 Bft) O-SO 112 0 min 10,9 C 14,3 C 0,0 km/h (0 Bft)
04.10.2015 19:15 14,7 C 23,6 C 13,9 C 14,5 C 14,1 C 0,0 C 77 % 84 % 0 % 1015,4 hPa 0,0 l/m 0,0 km/h (0 Bft) O-SO 112 0 min 10,7 C 14,1 C 0,0 km/h (0 Bft)
04.10.2015 19:20 14,5 C 23,6 C 13,9 C 14,3 C 13,9 C 0,0 C 77 % 84 % 0 % 1015,4 hPa 0,0 l/m 0,0 km/h (0 Bft) O-SO 112 0 min 10,5 C 13,9 C 0,0 km/h (0 Bft)
04.10.2015 19:25 14,3 C 23,6 C 13,7 C 14,1 C 13,6 C 0,0 C 77 % 84 % 0 % 1015,4 hPa 0,0 l/m 0,0 km/h (0 Bft) O-SO 112 0 min 10,3 C 13,6 C 0,0 km/h (0 Bft)
04.10.2015 19:30 14,1 C 23,7 C 13,6 C 13,9 C 13,5 C 0,0 C 77 % 84 % 0 % 1015,4 hPa 0,0 l/m 0,0 km/h (0 Bft) O-SO 112 0 min 10,1 C 13,5 C 0,0 km/h (0 Bft)
04.10.2015 19:35 13,9 C 23,8 C 13,4 C 13,7 C 13,2 C 0,0 C 78 % 85 % 0 % 1015,2 hPa 0,0 l/m 0,0 km/h (0 Bft) O-SO 112 0 min 10,1 C 13,2 C 0,0 km/h (0 Bft)
04.10.2015 19:40 13,7 C 23,8 C 13,3 C 13,5 C 13,0 C 0,0 C 78 % 85 % 0 % 1015,2 hPa 0,0 l/m 0,0 km/h (0 Bft) O-SO 112 0 min 9,9 C 13,0 C 0,0 km/h (0 Bft)
04.10.2015 19:45 13,4 C 23,8 C 13,2 C 13,2 C 12,9 C 0,0 C 78 % 85 % 0 % 1015,2 hPa 0,0 l/m 0,0 km/h (0 Bft) O-SO 112 0 min 9,6 C 12,9 C 0,0 km/h (0 Bft)
04.10.2015 19:50 13,2 C 23,8 C 13,1 C 13,1 C 12,8 C 0,0 C 79 % 85 % 0 % 1015,2 hPa 0,0 l/m 0,0 km/h (0 Bft) O-SO 112 0 min 9,6 C 12,8 C 0,0 km/h (0 Bft)
04.10.2015 19:55 12,9 C 23,8 C 13,1 C 12,9 C 12,8 C 0,0 C 79 % 86 % 0 % 1015,5 hPa 0,0 l/m 0,0 km/h (0 Bft) O-SO 112 0 min 9,3 C 12,8 C 0,0 km/h (0 Bft)
04.10.2015 20:00 12,7 C 23,8 C 12,9 C 12,7 C 12,7 C 0,0 C 79 % 86 % 0 % 1015,5 hPa 0,0 l/m 0,0 km/h (0 Bft) O-SO 112 0 min 9,2 C 12,7 C 0,0 km/h (0 Bft)
04.10.2015 20:05 12,5 C 23,8 C 12,8 C 12,6 C 12,6 C 0,1 C 80 % 86 % 0 % 1015,5 hPa 0,0 l/m 0,0 km/h (0 Bft) O-SO 112 0 min 9,1 C 12,6 C 0,0 km/h (0 Bft)
04.10.2015 20:10 12,5 C 23,8 C 12,7 C 12,5 C 12,4 C 0,0 C 80 % 86 % 0 % 1015,5 hPa 0,0 l/m 0,0 km/h (0 Bft) O-SO 112 0 min 9,1 C 12,4 C 0,0 km/h (0 Bft)
04.10.2015 20:15 12,3 C 23,8 C 12,7 C 12,3 C 12,2 C 0,0 C 80 % 86 % 0 % 1015,4 hPa 0,0 l/m 0,0 km/h (0 Bft) O-SO 112 0 min 8,9 C 12,2 C 0,0 km/h (0 Bft)
04.10.2015 20:20 12,0 C 23,8 C 12,5 C 12,2 C 12,2 C 0,2 C 81 % 87 % 0 % 1015,4 hPa 0,0 l/m 0,0 km/h (0 Bft) O-SO 112 0 min 8,8 C 12,2 C 0,0 km/h (0 Bft)
04.10.2015 20:25 11,9 C 23,8 C 12,4 C 12,2 C 12,2 C 0,3 C 81 % 87 % 0 % 1015,4 hPa 0,0 l/m 0,0 km/h (0 Bft) O-SO 112 0 min 8,7 C 12,2 C 0,0 km/h (0 Bft)
04.10.2015 20:30 11,8 C 23,9 C 12,4 C 12,2 C 12,2 C 0,4 C 81 % 87 % 0 % 1015,4 hPa 0,0 l/m 0,0 km/h (0 Bft) O-SO 112 0 min 8,6 C 12,2 C 0,0 km/h (0 Bft)
04.10.2015 20:35 11,7 C 24,0 C 12,3 C 12,2 C 12,2 C 0,5 C 82 % 87 % 0 % 1015,4 hPa 0,0 l/m 0,0 km/h (0 Bft) O-NO 67 0 min 8,7 C 12,2 C 0,0 km/h (0 Bft)
04.10.2015 20:40 11,7 C 24,0 C 12,3 C 12,4 C 12,4 C 0,7 C 82 % 87 % 0 % 1015,4 hPa 0,0 l/m 0,0 km/h (0 Bft) O-NO 67 0 min 8,7 C 12,4 C 0,0 km/h (0 Bft)
04.10.2015 20:45 11,6 C 24,0 C 12,4 C 12,5 C 12,5 C 0,9 C 82 % 88 % 0 % 1015,4 hPa 0,0 l/m 0,0 km/h (0 Bft) O-NO 67 0 min 8,6 C 12,5 C 0,0 km/h (0 Bft)
04.10.2015 20:50 11,6 C 24,0 C 12,4 C 12,5 C 12,5 C 0,9 C 82 % 88 % 0 % 1015,4 hPa 0,0 l/m 0,0 km/h (0 Bft) O-NO 67 0 min 8,6 C 12,5 C 0,0 km/h (0 Bft)
04.10.2015 20:55 11,7 C 24,0 C 12,4 C 12,5 C 12,5 C 0,8 C 83 % 88 % 0 % 1015,2 hPa 0,0 l/m 0,0 km/h (0 Bft) O-NO 67 0 min 8,9 C 12,5 C 0,0 km/h (0 Bft)
04.10.2015 21:00 11,6 C 23,9 C 12,4 C 12,5 C 12,5 C 0,9 C 83 % 88 % 0 % 1015,2 hPa 0,0 l/m 0,0 km/h (0 Bft) O-NO 67 0 min 8,8 C 12,5 C 0,0 km/h (0 Bft)
04.10.2015 21:06 11,5 C 23,9 C 12,4 C 12,3 C 12,3 C 0,8 C 83 % 88 % 0 % 1015,2 hPa 0,0 l/m 0,0 km/h (0 Bft) S-SW 202 0 min 8,7 C 12,3 C 0,0 km/h (0 Bft)
04.10.2015 21:10 11,5 C 23,9 C 12,4 C 12,2 C 12,2 C 0,7 C 83 % 88 % 0 % 1015,2 hPa 0,0 l/m 0,0 km/h (0 Bft) S-SW 202 0 min 8,7 C 12,2 C 0,0 km/h (0 Bft)
04.10.2015 21:17 11,3 C 24,0 C 12,3 C 11,9 C 11,9 C 0,6 C 83 % 88 % 0 % 1015,4 hPa 0,0 l/m 0,0 km/h (0 Bft) S-SO 157 0 min 8,5 C 11,9 C 0,0 km/h (0 Bft)
04.10.2015 21:18 11,3 C 24,0 C 12,3 C 11,9 C 11,9 C 0,6 C 83 % 88 % 0 % 1015,4 hPa 0,0 l/m 0,0 km/h (0 Bft) S-SO 157 0 min 8,5 C 11,9 C 0,0 km/h (0 Bft)
04.10.2015 21:19 11,3 C 24,0 C 12,3 C 11,9 C 11,9 C 0,6 C 83 % 88 % 0 % 1015,4 hPa 0,0 l/m 0,0 km/h (0 Bft) S-SO 157 0 min 8,5 C 11,9 C 0,0 km/h (0 Bft)
04.10.2015 21:20 11,3 C 24,0 C 12,3 C 11,9 C 11,9 C 0,6 C 83 % 88 % 0 % 1015,4 hPa 0,0 l/m 0,0 km/h (0 Bft) S-SO 157 0 min 8,5 C 11,9 C 0,0 km/h (0 Bft)
04.10.2015 21:21 11,3 C 24,0 C 12,3 C 11,9 C 11,9 C 0,6 C 83 % 88 % 0 % 1015,4 hPa 0,0 l/m 0,0 km/h (0 Bft) S-SO 157 0 min 8,5 C 11,9 C 0,0 km/h (0 Bft)
04.10.2015 21:23 11,2 C 24,0 C 12,1 C 11,8 C 11,8 C 0,6 C 83 % 88 % 0 % 1015,4 hPa 0,0 l/m 0,0 km/h (0 Bft) O-NO 67 0 min 8,4 C 11,8 C 0,0 km/h (0 Bft)
04.10.2015 21:34 11,2 C 24,0 C 12,0 C 11,8 C 11,8 C 0,6 C 84 % 88 % 0 % 1015,6 hPa 0,0 l/m 0,0 km/h (0 Bft) O-NO 67 0 min 8,6 C 11,8 C 0,0 km/h (0 Bft)
04.10.2015 21:35 11,2 C 24,0 C 12,0 C 11,8 C 11,8 C 0,6 C 84 % 88 % 0 % 1015,6 hPa 0,0 l/m 0,0 km/h (0 Bft) O-NO 67 0 min 8,6 C 11,8 C 0,0 km/h (0 Bft)
04.10.2015 21:36 11,2 C 24,0 C 12,0 C 11,8 C 11,8 C 0,6 C 84 % 88 % 0 % 1015,6 hPa 0,0 l/m 0,0 km/h (0 Bft) O-NO 67 0 min 8,6 C 11,8 C 0,0 km/h (0 Bft)
04.10.2015 21:37 11,3 C 24,0 C 12,1 C 11,8 C 11,8 C 0,5 C 84 % 88 % 0 % 1015,6 hPa 0,0 l/m 0,0 km/h (0 Bft) O-NO 67 0 min 8,7 C 11,8 C 0,0 km/h (0 Bft)
04.10.2015 21:38 11,3 C 24,0 C 12,1 C 11,8 C 11,8 C 0,5 C 84 % 88 % 0 % 1015,6 hPa 0,0 l/m 0,0 km/h (0 Bft) O-NO 67 0 min 8,7 C 11,8 C 0,0 km/h (0 Bft)
04.10.2015 21:40 11,3 C 24,0 C 12,1 C 11,8 C 11,8 C 0,5 C 84 % 88 % 0 % 1015,6 hPa 0,0 l/m 0,0 km/h (0 Bft) O-NO 67 0 min 8,7 C 11,8 C 0,0 km/h (0 Bft)
04.10.2015 21:51 11,1 C 24,0 C 11,9 C 11,7 C 11,7 C 0,6 C 84 % 88 % 0 % 1015,6 hPa 0,0 l/m 0,0 km/h (0 Bft) O-NO 67 0 min 8,5 C 11,7 C 0,0 km/h (0 Bft)
04.10.2015 21:52 11,1 C 24,0 C 11,7 C 11,6 C 11,6 C 0,5 C 85 % 88 % 0 % 1015,6 hPa 0,0 l/m 0,0 km/h (0 Bft) O-NO 67 0 min 8,7 C 11,6 C 0,0 km/h (0 Bft)
04.10.2015 21:53 11,1 C 24,0 C 11,7 C 11,6 C 11,6 C 0,5 C 85 % 88 % 0 % 1015,6 hPa 0,0 l/m 0,0 km/h (0 Bft) O-NO 67 0 min 8,7 C 11,6 C 0,0 km/h (0 Bft)
04.10.2015 21:54 11,1 C 24,0 C 11,7 C 11,6 C 11,6 C 0,5 C 85 % 88 % 0 % 1015,6 hPa 0,0 l/m 0,0 km/h (0 Bft) O-NO 67 0 min 8,7 C 11,6 C 0,0 km/h (0 Bft)
04.10.2015 21:55 11,1 C 24,0 C 11,7 C 11,6 C 11,6 C 0,5 C 85 % 88 % 0 % 1015,6 hPa 0,0 l/m 0,0 km/h (0 Bft) O-NO 67 0 min 8,7 C 11,6 C 0,0 km/h (0 Bft)
04.10.2015 21:56 11,0 C 24,0 C 11,7 C 11,5 C 11,5 C 0,5 C 85 % 89 % 0 % 1015,6 hPa 0,0 l/m 0,0 km/h (0 Bft) O-NO 67 0 min 8,6 C 11,5 C 0,0 km/h (0 Bft)
04.10.2015 22:01 11,1 C 24,0 C 11,6 C 11,5 C 11,5 C 0,4 C 85 % 89 % 0 % 1015,6 hPa 0,0 l/m 0,0 km/h (0 Bft) O-NO 67 0 min 8,7 C 11,5 C 0,0 km/h (0 Bft)
04.10.2015 22:06 10,9 C 24,0 C 11,6 C 11,4 C 11,4 C 0,5 C 85 % 89 % 0 % 1015,6 hPa 0,0 l/m 0,0 km/h (0 Bft) O-SO 112 0 min 8,5 C 11,4 C 0,0 km/h (0 Bft)
04.10.2015 22:11 10,8 C 24,0 C 11,6 C 11,4 C 11,4 C 0,6 C 85 % 89 % 0 % 1015,6 hPa 0,0 l/m 0,0 km/h (0 Bft) O-NO 67 0 min 8,4 C 11,4 C 0,0 km/h (0 Bft)
04.10.2015 22:16 10,9 C 24,0 C 11,5 C 11,4 C 11,4 C 0,5 C 85 % 89 % 0 % 1015,6 hPa 0,0 l/m 0,0 km/h (0 Bft) N-NO 22 0 min 8,5 C 11,4 C 0,0 km/h (0 Bft)
04.10.2015 22:17 10,9 C 24,0 C 11,5 C 11,4 C 11,4 C 0,5 C 85 % 89 % 0 % 1015,6 hPa 0,0 l/m 0,0 km/h (0 Bft) N-NO 22 0 min 8,5 C 11,4 C 0,0 km/h (0 Bft)
04.10.2015 22:20 10,9 C 24,0 C 11,5 C 11,4 C 11,4 C 0,5 C 85 % 89 % 0 % 1015,6 hPa 0,0 l/m 0,0 km/h (0 Bft) N-NO 22 0 min 8,5 C 11,4 C 0,0 km/h (0 Bft)
04.10.2015 22:25 10,9 C 23,9 C 11,6 C 11,4 C 11,4 C 0,5 C 85 % 89 % 0 % 1015,6 hPa 0,0 l/m 0,0 km/h (0 Bft) N-NO 22 0 min 8,5 C 11,4 C 0,0 km/h (0 Bft)
04.10.2015 22:30 10,8 C 23,9 C 11,7 C 11,4 C 11,4 C 0,6 C 85 % 89 % 0 % 1015,6 hPa 0,0 l/m 0,2 km/h (0 Bft) SW 225 0 min 8,4 C 11,4 C 2,3 km/h (1 Bft)
04.10.2015 22:35 10,8 C 23,9 C 11,7 C 11,6 C 11,6 C 0,8 C 85 % 89 % 0 % 1015,6 hPa 0,0 l/m 0,2 km/h (0 Bft) S 180 0 min 8,4 C 11,6 C 0,0 km/h (0 Bft)
04.10.2015 22:40 10,8 C 23,9 C 11,7 C 11,7 C 11,7 C 0,9 C 86 % 89 % 0 % 1015,6 hPa 0,0 l/m 0,3 km/h (0 Bft) S-SO 157 0 min 8,6 C 11,7 C 1,8 km/h (1 Bft)
04.10.2015 22:45 10,7 C 23,9 C 11,7 C 11,8 C 11,8 C 1,1 C 86 % 89 % 0 % 1015,6 hPa 0,0 l/m 0,3 km/h (0 Bft) S 180 0 min 8,5 C 11,8 C 1,8 km/h (1 Bft)
04.10.2015 22:50 10,7 C 23,9 C 11,7 C 11,8 C 11,8 C 1,1 C 86 % 89 % 0 % 1015,6 hPa 0,0 l/m 0,2 km/h (0 Bft) S 180 0 min 8,5 C 11,8 C 0,0 km/h (0 Bft)
04.10.2015 22:55 10,7 C 23,9 C 11,6 C 11,8 C 11,8 C 1,1 C 86 % 89 % 0 % 1015,8 hPa 0,0 l/m 0,2 km/h (0 Bft) W-SW 247 0 min 8,5 C 11,8 C 0,0 km/h (0 Bft)
04.10.2015 23:00 10,7 C 24,0 C 11,6 C 11,7 C 11,7 C 1,0 C 86 % 89 % 0 % 1015,8 hPa 0,0 l/m 0,0 km/h (0 Bft) O-NO 67 0 min 8,5 C 11,7 C 0,0 km/h (0 Bft)
04.10.2015 23:05 10,8 C 24,0 C 11,6 C 11,6 C 11,6 C 0,8 C 86 % 89 % 0 % 1015,8 hPa 0,0 l/m 0,0 km/h (0 Bft) O-NO 67 0 min 8,6 C 11,6 C 0,0 km/h (0 Bft)
04.10.2015 23:10 10,7 C 24,0 C 11,7 C 11,4 C 11,4 C 0,7 C 86 % 89 % 0 % 1015,8 hPa 0,0 l/m 0,0 km/h (0 Bft) SO 135 0 min 8,5 C 11,4 C 0,0 km/h (0 Bft)
04.10.2015 23:15 10,8 C 23,9 C 11,6 C 11,2 C 11,2 C 0,4 C 86 % 89 % 0 % 1015,9 hPa 0,0 l/m 0,0 km/h (0 Bft) O-NO 67 0 min 8,6 C 11,2 C 0,0 km/h (0 Bft)
04.10.2015 23:20 10,7 C 23,8 C 11,6 C 11,2 C 11,2 C 0,5 C 86 % 89 % 0 % 1015,9 hPa 0,0 l/m 0,0 km/h (0 Bft) S-SW 202 0 min 8,5 C 11,2 C 0,0 km/h (0 Bft)
04.10.2015 23:25 10,7 C 23,9 C 11,4 C 11,1 C 11,1 C 0,4 C 86 % 89 % 0 % 1015,9 hPa 0,0 l/m 0,0 km/h (0 Bft) W 270 0 min 8,5 C 11,1 C 0,0 km/h (0 Bft)
04.10.2015 23:30 10,7 C 23,9 C 11,5 C 11,0 C 11,0 C 0,3 C 86 % 89 % 0 % 1015,9 hPa 0,0 l/m 0,0 km/h (0 Bft) O 90 0 min 8,5 C 11,0 C 0,0 km/h (0 Bft)
04.10.2015 23:35 10,7 C 24,0 C 11,4 C 10,9 C 10,9 C 0,2 C 86 % 89 % 0 % 1016,3 hPa 0,0 l/m 0,0 km/h (0 Bft) O 90 0 min 8,5 C 10,9 C 0,0 km/h (0 Bft)
04.10.2015 23:40 10,6 C 24,0 C 11,3 C 10,8 C 10,8 C 0,2 C 86 % 89 % 0 % 1016,3 hPa 0,0 l/m 0,0 km/h (0 Bft) O-NO 67 0 min 8,4 C 10,8 C 0,0 km/h (0 Bft)
04.10.2015 23:45 10,5 C 23,9 C 11,2 C 10,6 C 10,6 C 0,1 C 86 % 89 % 0 % 1016,3 hPa 0,0 l/m 0,0 km/h (0 Bft) O-NO 67 0 min 8,3 C 10,6 C 0,0 km/h (0 Bft)
04.10.2015 23:50 10,3 C 23,9 C 11,0 C 10,4 C 10,4 C 0,1 C 86 % 89 % 0 % 1016,3 hPa 0,0 l/m 0,0 km/h (0 Bft) W 270 0 min 8,1 C 10,4 C 0,0 km/h (0 Bft)
04.10.2015 23:55 10,0 C 23,9 C 11,0 C 10,0 C 10,0 C 0,0 C 85 % 89 % 0 % 1015,5 hPa 0,0 l/m 0,0 km/h (0 Bft) W 270 0 min 7,6 C 10,0 C 0,0 km/h (0 Bft)
_ Min-Zeit 07:35 11:35 07:35 07:25 07:25 03:15 15:05 15:20 00:01 00:01 - 00:01 - - - 07:25 07:25 00:01
Minimum _ 6,2 C 22,6 C 7,4 C 6,6 C 6,6 C 0,0 C 61 % 70 % 0 % 1013,3 hPa - 0,0 km/h (0 Bft) - - - 4,3 C 6,6 C 0,0 km/h (0 Bft)
_ Max-Zeit 14:55 20:35 14:45 13:00 13:00 12:55 10:10 04:10 11:25 23:35 00:01 14:10 - - 12:50 13:00 13:00 14:00
Maximum _ 20,1 C 24,0 C 18,1 C 25,6 C 25,6 C 6,3 C 92 % 90 % 100 % 1016,3 hPa 0,0 l/m 2,6 km/h
W-SW (1 Bft)
- - 9 min 13,4 C 25,6 C 8,0 km/h
W (2 Bft)
Durchschnitt _ 12,6 C 23,3 C 12,6 C 13,8 C 13,8 C 1,3 C 79 % 84 % 26 % 1014,8 hPa #0,0 l/m 0,3 km/h (0 Bft) SW - #4:45 h 9,0 C 13,8 C 0,6 km/h (0 Bft)
2015 www.wetterstation-wechselburg.de